createdAt,value
2023-05-23T00:01:10.173Z,12.90
2023-05-23T00:03:37.512Z,23.80
2023-05-23T00:06:06.151Z,13.00
2023-05-23T00:08:32.760Z,21.50
2023-05-23T00:10:59.337Z,17.83
2023-05-23T00:13:26.823Z,13.32
2023-05-23T00:15:53.306Z,20.58
2023-05-23T00:18:19.984Z,11.52
2023-05-23T00:20:47.069Z,14.50
2023-05-23T00:23:19.394Z,16.67
2023-05-23T00:25:53.030Z,14.55
2023-05-23T00:28:20.373Z,13.82
2023-05-23T00:30:47.110Z,15.40
2023-05-23T00:33:14.600Z,18.85
2023-05-23T00:35:41.743Z,15.95
2023-05-23T00:38:08.447Z,15.88
2023-05-23T00:40:35.221Z,14.68
2023-05-23T00:43:02.093Z,13.90
2023-05-23T00:45:29.571Z,15.27
2023-05-23T00:47:56.267Z,21.95
2023-05-23T00:50:22.841Z,15.75
2023-05-23T00:52:49.696Z,16.10
2023-05-23T00:55:16.436Z,12.90
2023-05-23T00:57:44.626Z,15.07
2023-05-23T01:00:15.425Z,15.40
2023-05-23T01:02:45.128Z,16.45
2023-05-23T01:05:14.459Z,14.40
2023-05-23T01:07:41.555Z,14.05
2023-05-23T01:10:08.749Z,16.50
2023-05-23T01:12:46.636Z,18.10
2023-05-23T01:15:15.489Z,22.23
2023-05-23T01:17:50.872Z,29.08
2023-05-23T01:20:21.531Z,23.43
2023-05-23T01:23:00.418Z,16.90
2023-05-23T01:25:29.997Z,17.38
2023-05-23T01:27:57.488Z,17.80
2023-05-23T01:30:25.140Z,21.25
2023-05-23T01:32:53.644Z,16.23
2023-05-23T01:35:27.568Z,17.38
2023-05-23T01:37:54.897Z,17.70
2023-05-23T01:40:22.247Z,26.05
2023-05-23T01:42:49.205Z,16.05
2023-05-23T01:45:16.438Z,23.20
2023-05-23T01:47:43.362Z,25.77
2023-05-23T01:50:10.813Z,17.73
2023-05-23T01:52:37.679Z,20.02
2023-05-23T01:55:09.762Z,19.23
2023-05-23T01:57:37.976Z,18.73
2023-05-23T02:00:08.270Z,21.35
2023-05-23T02:02:34.886Z,21.10
2023-05-23T02:05:01.534Z,15.73
2023-05-23T02:07:28.106Z,19.98
2023-05-23T02:09:54.870Z,21.42
2023-05-23T02:12:21.491Z,17.02
2023-05-23T02:14:48.307Z,25.98
2023-05-23T02:17:16.982Z,17.33
2023-05-23T02:19:43.836Z,14.27
2023-05-23T02:22:10.325Z,22.38
2023-05-23T02:24:36.825Z,24.02
2023-05-23T02:27:03.427Z,20.15
2023-05-23T02:29:29.949Z,17.95
2023-05-23T02:31:56.566Z,23.25
2023-05-23T02:34:23.017Z,20.88
2023-05-23T02:36:49.488Z,22.80
2023-05-23T02:39:16.039Z,24.65
2023-05-23T02:41:42.543Z,20.83
2023-05-23T02:44:09.162Z,21.13
2023-05-23T02:46:35.849Z,22.45
2023-05-23T02:49:02.364Z,18.33
2023-05-23T02:51:28.872Z,26.80
2023-05-23T02:53:55.519Z,19.10
2023-05-23T02:56:22.368Z,20.48
2023-05-23T02:58:48.932Z,19.15
2023-05-23T03:01:16.219Z,20.92
2023-05-23T03:03:42.933Z,23.98
2023-05-23T03:06:10.697Z,20.08
2023-05-23T03:08:37.634Z,22.30
2023-05-23T03:11:04.134Z,24.77
2023-05-23T03:13:30.697Z,17.40
2023-05-23T03:15:57.191Z,20.38
2023-05-23T03:18:23.752Z,22.08
2023-05-23T03:20:50.561Z,18.35
2023-05-23T03:23:17.059Z,20.30
2023-05-23T03:25:43.759Z,19.80
2023-05-23T03:28:12.186Z,23.20
2023-05-23T03:30:38.738Z,19.85
2023-05-23T03:33:07.107Z,21.88
2023-05-23T03:35:35.767Z,18.85
2023-05-23T03:38:02.265Z,20.05
2023-05-23T03:40:28.837Z,19.95
2023-05-23T03:43:05.422Z,21.10
2023-05-23T03:45:32.321Z,22.40
2023-05-23T03:47:59.352Z,19.55
2023-05-23T03:50:26.552Z,20.17
2023-05-23T03:52:53.770Z,26.45
2023-05-23T03:55:25.439Z,21.33
2023-05-23T03:57:52.214Z,20.45
2023-05-23T04:00:19.582Z,17.63
2023-05-23T04:02:46.731Z,20.85
2023-05-23T04:05:13.516Z,22.23
2023-05-23T04:07:43.188Z,21.48
2023-05-23T04:10:11.346Z,29.38
2023-05-23T04:12:38.581Z,27.70
2023-05-23T04:15:05.344Z,22.42
2023-05-23T04:17:32.557Z,23.55
2023-05-23T04:19:59.273Z,25.50
2023-05-23T04:22:26.609Z,25.73
2023-05-23T04:24:53.297Z,25.48
2023-05-23T04:27:20.100Z,21.90
2023-05-23T04:29:46.882Z,34.17
2023-05-23T04:32:14.819Z,30.05
2023-05-23T04:34:41.601Z,25.92
2023-05-23T04:37:09.361Z,28.80
2023-05-23T04:39:38.624Z,26.10
2023-05-23T04:42:07.339Z,30.30
2023-05-23T04:44:34.192Z,27.42
2023-05-23T04:47:03.158Z,31.83
2023-05-23T04:49:29.908Z,28.75
2023-05-23T04:51:56.643Z,24.50
2023-05-23T04:54:23.250Z,31.92
2023-05-23T04:56:49.893Z,31.15
2023-05-23T04:59:17.555Z,33.80
2023-05-23T05:01:44.138Z,32.08
2023-05-23T05:04:10.776Z,27.58
2023-05-23T05:06:38.276Z,26.90
2023-05-23T05:09:05.549Z,30.17
2023-05-23T05:11:32.060Z,31.95
2023-05-23T05:13:58.635Z,28.13
2023-05-23T05:16:25.275Z,23.60
2023-05-23T05:18:51.932Z,27.45
2023-05-23T05:21:18.552Z,30.70
2023-05-23T05:23:45.136Z,27.25
2023-05-23T05:26:12.822Z,32.22
2023-05-23T05:28:39.417Z,40.03
2023-05-23T05:31:06.035Z,26.80
2023-05-23T05:33:36.462Z,31.83
2023-05-23T05:36:03.633Z,25.67
2023-05-23T05:38:31.402Z,24.65
2023-05-23T05:40:58.097Z,28.15
2023-05-23T05:43:26.223Z,25.10
2023-05-23T05:45:53.073Z,26.27
2023-05-23T05:48:19.636Z,25.45
2023-05-23T05:50:46.857Z,25.48
2023-05-23T05:53:14.135Z,23.80
2023-05-23T05:55:43.892Z,24.88
2023-05-23T05:58:10.436Z,27.17
2023-05-23T06:00:42.582Z,20.17
2023-05-23T06:03:09.457Z,29.75
2023-05-23T06:05:37.525Z,25.67
2023-05-23T06:08:04.871Z,25.65
2023-05-23T06:10:31.450Z,25.00
2023-05-23T06:12:58.741Z,20.20
2023-05-23T06:15:26.018Z,25.20
2023-05-23T06:17:52.822Z,23.77
2023-05-23T06:20:19.410Z,28.92
2023-05-23T06:22:46.644Z,24.70
2023-05-23T06:25:13.473Z,26.77
2023-05-23T06:27:40.037Z,24.90
2023-05-23T06:30:07.071Z,24.13
2023-05-23T06:32:33.625Z,20.25
2023-05-23T06:35:00.123Z,23.75
2023-05-23T06:37:26.599Z,20.00
2023-05-23T06:39:53.098Z,22.23
2023-05-23T06:42:19.592Z,25.83
2023-05-23T06:44:46.060Z,20.33
2023-05-23T06:47:12.536Z,25.98
2023-05-23T06:49:39.089Z,23.75
2023-05-23T06:52:05.673Z,20.25
2023-05-23T06:54:32.137Z,23.25
2023-05-23T06:56:58.802Z,23.02
2023-05-23T06:59:25.409Z,20.55
2023-05-23T07:01:54.771Z,23.15
2023-05-23T07:04:21.528Z,24.00
2023-05-23T07:06:48.392Z,21.13
2023-05-23T07:09:14.972Z,28.85
2023-05-23T07:11:41.750Z,27.13
2023-05-23T07:14:08.402Z,22.55
2023-05-23T07:16:35.115Z,27.83
2023-05-23T07:19:03.049Z,23.60
2023-05-23T07:21:30.998Z,24.58
2023-05-23T07:23:57.596Z,25.40
2023-05-23T07:26:25.380Z,26.38
2023-05-23T07:28:53.591Z,27.63
2023-05-23T07:31:20.101Z,33.65
2023-05-23T07:33:46.691Z,28.65
2023-05-23T07:36:13.372Z,32.53
2023-05-23T07:38:40.740Z,28.05
2023-05-23T07:41:12.080Z,34.55
2023-05-23T07:43:39.176Z,33.55
